createdAt,value
2023-06-19T00:00:08.418Z,47.96
2023-06-19T00:03:00.986Z,48.12
2023-06-19T00:05:30.079Z,48.26
2023-06-19T00:08:00.665Z,48.51
2023-06-19T00:10:29.621Z,48.88
2023-06-19T00:12:58.725Z,48.77
2023-06-19T00:15:30.576Z,48.83
2023-06-19T00:18:00.917Z,49.42
2023-06-19T00:20:29.785Z,49.41
2023-06-19T00:22:59.019Z,49.82
2023-06-19T00:25:27.729Z,50.35
2023-06-19T00:27:56.745Z,49.92
2023-06-19T00:30:25.759Z,50.24
2023-06-19T00:32:55.365Z,50.19
2023-06-19T00:35:28.508Z,50.27
2023-06-19T00:37:57.644Z,50.46
2023-06-19T00:40:31.584Z,50.34
2023-06-19T00:43:01.041Z,50.85
2023-06-19T00:45:30.019Z,50.35
2023-06-19T00:48:00.732Z,50.58
2023-06-19T00:50:31.430Z,50.28
2023-06-19T00:53:01.027Z,50.23
2023-06-19T00:55:32.744Z,50.02
2023-06-19T00:58:02.031Z,50.80
2023-06-19T01:00:30.846Z,50.82
2023-06-19T01:03:00.997Z,50.48
2023-06-19T01:05:31.535Z,49.98
2023-06-19T01:08:15.520Z,50.03
2023-06-19T01:10:51.308Z,50.18
2023-06-19T01:13:33.814Z,50.59
2023-06-19T01:16:03.496Z,50.40
2023-06-19T01:18:35.960Z,50.42
2023-06-19T01:21:18.998Z,50.52
2023-06-19T01:24:13.490Z,50.73
2023-06-19T01:26:43.168Z,50.65
2023-06-19T01:29:12.878Z,50.59
2023-06-19T01:32:06.773Z,50.66
2023-06-19T01:34:36.447Z,50.47
2023-06-19T01:37:06.847Z,49.94
2023-06-19T01:39:37.350Z,50.46
2023-06-19T01:42:06.735Z,50.58
2023-06-19T01:44:36.736Z,50.87
2023-06-19T01:47:12.486Z,50.96
2023-06-19T01:49:41.585Z,51.07
2023-06-19T01:52:10.298Z,51.29
2023-06-19T01:54:39.333Z,51.29
2023-06-19T01:57:09.450Z,51.13
2023-06-19T01:59:38.907Z,51.20
2023-06-19T02:02:08.089Z,51.02
2023-06-19T02:04:37.204Z,50.94
2023-06-19T02:07:06.197Z,51.10
2023-06-19T02:09:35.563Z,51.07
2023-06-19T02:12:04.466Z,51.07
2023-06-19T02:14:33.503Z,51.29
2023-06-19T02:17:02.298Z,50.86
2023-06-19T02:19:31.414Z,51.35
2023-06-19T02:22:00.135Z,51.58
2023-06-19T02:24:29.411Z,51.48
2023-06-19T02:26:58.325Z,51.37
2023-06-19T02:29:27.764Z,51.26
2023-06-19T02:31:56.974Z,51.43
2023-06-19T02:34:26.119Z,51.60
2023-06-19T02:36:54.783Z,51.45
2023-06-19T02:39:25.046Z,51.84
2023-06-19T02:41:53.866Z,51.56
2023-06-19T02:44:23.074Z,51.74
2023-06-19T02:46:51.938Z,50.60
2023-06-19T02:49:21.064Z,50.08
2023-06-19T02:51:49.785Z,49.77
2023-06-19T02:54:18.944Z,49.91
2023-06-19T02:56:47.752Z,49.82
2023-06-19T02:59:20.441Z,50.18
2023-06-19T03:01:49.331Z,50.24
2023-06-19T03:04:18.855Z,49.84
2023-06-19T03:06:47.607Z,50.37
2023-06-19T03:09:17.498Z,50.27
2023-06-19T03:11:46.484Z,50.66
2023-06-19T03:14:16.269Z,51.27
2023-06-19T03:16:45.168Z,50.58
2023-06-19T03:19:14.940Z,50.43
2023-06-19T03:21:43.687Z,49.85
2023-06-19T03:24:13.930Z,50.48
2023-06-19T03:26:42.704Z,49.81
2023-06-19T03:29:11.963Z,49.19
2023-06-19T03:32:10.146Z,48.71
2023-06-19T03:34:39.392Z,49.98
2023-06-19T03:37:10.783Z,49.46
2023-06-19T03:39:39.892Z,50.13
2023-06-19T03:42:11.594Z,50.60
2023-06-19T03:44:42.077Z,50.94
2023-06-19T03:47:10.859Z,51.44
2023-06-19T03:49:40.058Z,50.78
2023-06-19T03:52:09.533Z,50.27
2023-06-19T03:54:38.877Z,50.52
2023-06-19T03:57:09.827Z,51.13
2023-06-19T03:59:39.033Z,51.17
2023-06-19T04:02:07.770Z,50.84
2023-06-19T04:04:36.852Z,51.40
2023-06-19T04:07:07.260Z,51.78
2023-06-19T04:09:36.351Z,51.65
2023-06-19T04:12:05.413Z,51.60
2023-06-19T04:14:35.069Z,51.63
2023-06-19T04:17:03.873Z,51.81
2023-06-19T04:19:33.162Z,51.98
2023-06-19T04:22:01.861Z,51.01
2023-06-19T04:24:30.922Z,50.49
2023-06-19T04:27:00.045Z,50.51
2023-06-19T04:29:33.208Z,51.16
2023-06-19T04:32:04.430Z,51.16
2023-06-19T04:34:33.702Z,50.82
2023-06-19T04:37:02.456Z,50.66
2023-06-19T04:39:31.690Z,50.74
2023-06-19T04:42:00.713Z,50.99
2023-06-19T04:44:34.845Z,51.25
2023-06-19T04:47:03.676Z,51.21
2023-06-19T04:49:32.773Z,50.64
2023-06-19T04:52:01.791Z,50.28
2023-06-19T04:54:33.982Z,49.62
2023-06-19T04:57:02.929Z,49.66
2023-06-19T04:59:32.606Z,49.56
2023-06-19T05:02:01.512Z,49.90
2023-06-19T05:04:34.123Z,49.72
2023-06-19T05:07:03.252Z,50.24
2023-06-19T05:09:32.357Z,49.77
2023-06-19T05:12:01.079Z,50.17
2023-06-19T05:14:30.151Z,49.12
2023-06-19T05:16:59.034Z,49.23
2023-06-19T05:19:28.289Z,49.16
2023-06-19T05:21:57.050Z,49.62
2023-06-19T05:24:26.159Z,49.32
2023-06-19T05:26:54.945Z,49.17
2023-06-19T05:29:24.063Z,49.25
2023-06-19T05:31:52.994Z,49.50
2023-06-19T05:34:24.108Z,49.21
2023-06-19T05:36:52.861Z,49.25
2023-06-19T05:39:22.001Z,49.15
2023-06-19T05:41:50.779Z,49.20
2023-06-19T05:44:20.334Z,49.28
2023-06-19T05:46:49.114Z,49.20
2023-06-19T05:49:18.302Z,50.13
2023-06-19T05:51:47.159Z,50.72
2023-06-19T05:54:16.551Z,50.89
2023-06-19T05:56:45.237Z,52.02
2023-06-19T05:59:15.944Z,51.93
2023-06-19T06:01:45.015Z,52.27
2023-06-19T06:04:15.472Z,51.96
2023-06-19T06:06:44.455Z,51.31
2023-06-19T06:09:14.468Z,51.44
2023-06-19T06:11:43.533Z,51.28
2023-06-19T06:14:13.552Z,51.08
2023-06-19T06:16:42.817Z,50.86
2023-06-19T06:19:12.066Z,50.58
2023-06-19T06:21:41.755Z,51.56
2023-06-19T06:24:10.974Z,51.59
2023-06-19T06:26:39.904Z,50.97
2023-06-19T06:29:09.390Z,50.96
2023-06-19T06:31:39.511Z,50.48
2023-06-19T06:34:10.056Z,50.47
2023-06-19T06:36:43.987Z,50.31
2023-06-19T06:39:16.052Z,50.80
2023-06-19T06:41:44.828Z,50.88
2023-06-19T06:44:15.489Z,50.29
2023-06-19T06:46:44.276Z,50.23
2023-06-19T06:49:13.811Z,49.94
2023-06-19T06:51:42.606Z,49.72
2023-06-19T06:54:11.748Z,49.99
2023-06-19T06:56:40.522Z,49.76
2023-06-19T06:59:09.641Z,49.35
2023-06-19T07:01:38.597Z,49.18
2023-06-19T07:04:08.067Z,49.46
2023-06-19T07:06:36.852Z,49.14
2023-06-19T07:09:06.079Z,49.23
2023-06-19T07:11:34.966Z,49.36
2023-06-19T07:14:04.606Z,48.97
2023-06-19T07:16:33.448Z,48.78
2023-06-19T07:19:02.701Z,48.90
2023-06-19T07:21:32.755Z,48.59
2023-06-19T07:24:01.870Z,48.87
2023-06-19T07:26:30.657Z,48.50
2023-06-19T07:28:59.807Z,48.39
2023-06-19T07:31:28.603Z,48.07
2023-06-19T07:33:57.773Z,48.15
2023-06-19T07:36:26.588Z,47.95
2023-06-19T07:38:57.185Z,48.04
2023-06-19T07:41:25.952Z,47.84
2023-06-19T07:43:55.074Z,48.01
2023-06-19T07:46:23.889Z,48.15
2023-06-19T07:48:52.986Z,47.73
2023-06-19T07:51:21.849Z,47.47
2023-06-19T07:53:51.054Z,47.23
2023-06-19T07:56:19.853Z,49.89
2023-06-19T07:58:49.231Z,49.47
2023-06-19T08:01:18.464Z,49.33
2023-06-19T08:03:48.148Z,50.60
2023-06-19T08:06:17.123Z,50.21
2023-06-19T08:08:46.663Z,49.46
2023-06-19T08:11:15.530Z,49.93
2023-06-19T08:13:44.859Z,49.81
2023-06-19T08:16:13.660Z,50.14
2023-06-19T08:18:43.808Z,49.69
2023-06-19T08:21:12.847Z,49.58
2023-06-19T08:23:45.009Z,49.64
2023-06-19T08:26:13.912Z,49.66
2023-06-19T08:28:43.429Z,49.85
2023-06-19T08:31:12.747Z,50.33
2023-06-19T08:33:41.962Z,50.79
2023-06-19T08:36:10.859Z,50.72
2023-06-19T08:38:40.073Z,50.40
2023-06-19T08:41:08.861Z,50.51
2023-06-19T08:43:39.533Z,49.90
2023-06-19T08:46:19.051Z,49.49
2023-06-19T08:48:50.609Z,50.60
2023-06-19T08:51:19.543Z,50.77
2023-06-19T08:53:53.593Z,50.73
2023-06-19T08:56:22.524Z,50.45
2023-06-19T08:58:52.146Z,50.07
2023-06-19T09:01:21.093Z,50.21
2023-06-19T09:03:54.034Z,51.18
2023-06-19T09:06:23.184Z,51.17
2023-06-19T09:09:01.928Z,50.96
2023-06-19T09:11:31.946Z,50.33
2023-06-19T09:14:01.114Z,50.05
2023-06-19T09:16:40.286Z,50.26
2023-06-19T09:19:09.760Z,50.65
2023-06-19T09:21:39.625Z,50.12
2023-06-19T09:24:09.641Z,50.36
2023-06-19T09:26:39.714Z,50.18
2023-06-19T09:29:20.209Z,49.98
2023-06-19T09:31:49.348Z,50.01
2023-06-19T09:34:18.597Z,49.69
2023-06-19T09:36:47.401Z,49.48
2023-06-19T09:39:16.851Z,48.96
2023-06-19T09:41:48.178Z,47.24
2023-06-19T09:44:17.572Z,46.52
2023-06-19T09:46:47.309Z,46.72
2023-06-19T09:49:16.627Z,47.00
2023-06-19T09:51:46.764Z,47.65
2023-06-19T09:54:16.086Z,47.95
2023-06-19T09:56:44.896Z,48.17
2023-06-19T09:59:14.975Z,47.62
2023-06-19T10:01:44.325Z,47.72
2023-06-19T10:04:14.388Z,47.56
2023-06-19T10:06:50.330Z,46.33
2023-06-19T10:09:19.686Z,45.71
2023-06-19T10:11:54.949Z,45.68
2023-06-19T10:14:24.250Z,45.54
2023-06-19T10:16:53.031Z,45.57
2023-06-19T10:19:23.364Z,45.83
2023-06-19T10:21:54.468Z,44.65
2023-06-19T10:24:25.614Z,44.23
2023-06-19T10:27:01.742Z,43.46
2023-06-19T10:29:41.049Z,42.49
2023-06-19T10:32:12.311Z,42.04
2023-06-19T10:34:41.825Z,41.65
2023-06-19T10:37:10.634Z,41.77
2023-06-19T10:39:39.845Z,41.73
2023-06-19T10:42:09.651Z,42.39
2023-06-19T10:44:39.410Z,42.56
2023-06-19T10:47:11.729Z,42.66
2023-06-19T10:49:40.866Z,43.47
2023-06-19T10:52:10.015Z,42.90
2023-06-19T10:54:42.021Z,42.41
2023-06-19T10:57:10.803Z,41.35
2023-06-19T10:59:41.172Z,41.65
2023-06-19T11:02:10.240Z,41.69
2023-06-19T11:04:40.946Z,41.78
2023-06-19T11:07:10.107Z,41.93
2023-06-19T11:09:40.508Z,40.82
2023-06-19T11:12:13.021Z,40.43
2023-06-19T11:14:43.785Z,40.92
2023-06-19T11:17:12.740Z,41.23
2023-06-19T11:19:44.940Z,41.63
2023-06-19T11:22:13.969Z,41.54
2023-06-19T11:24:47.271Z,41.43
2023-06-19T11:27:20.220Z,41.98
2023-06-19T11:29:49.327Z,39.93
2023-06-19T11:32:26.429Z,40.31
2023-06-19T11:34:55.995Z,41.07
2023-06-19T11:37:24.904Z,39.80
2023-06-19T11:39:54.911Z,39.62
2023-06-19T11:42:25.591Z,39.73
2023-06-19T11:44:58.405Z,39.13
2023-06-19T11:47:27.528Z,38.32
2023-06-19T11:49:56.955Z,39.42
2023-06-19T11:52:25.861Z,39.06
2023-06-19T11:54:55.124Z,39.34
2023-06-19T11:57:24.267Z,39.03
2023-06-19T11:59:53.420Z,39.18
2023-06-19T12:02:22.222Z,39.27
2023-06-19T12:04:51.609Z,39.36
2023-06-19T12:07:21.150Z,39.34
2023-06-19T12:09:50.378Z,39.83
2023-06-19T12:12:19.203Z,39.43
2023-06-19T12:14:48.597Z,39.44
2023-06-19T12:17:17.519Z,39.86
2023-06-19T12:19:46.692Z,39.21
2023-06-19T12:22:15.508Z,39.30
2023-06-19T12:24:44.687Z,39.50
2023-06-19T12:27:13.587Z,39.36
2023-06-19T12:29:42.829Z,39.95
2023-06-19T12:32:11.616Z,39.52
2023-06-19T12:34:41.753Z,38.68
2023-06-19T12:37:10.597Z,37.88
2023-06-19T12:39:39.836Z,38.19
2023-06-19T12:42:09.038Z,38.57
2023-06-19T12:44:38.187Z,37.74
2023-06-19T12:47:07.553Z,37.52
2023-06-19T12:49:36.766Z,37.17
2023-06-19T12:52:05.990Z,37.45
2023-06-19T12:54:35.290Z,36.64
2023-06-19T12:57:04.465Z,36.33
2023-06-19T12:59:34.073Z,36.59
2023-06-19T13:02:03.129Z,37.82
2023-06-19T13:04:32.333Z,37.88
2023-06-19T13:07:01.204Z,38.12
2023-06-19T13:09:31.354Z,38.59
2023-06-19T13:12:00.175Z,38.70
2023-06-19T13:14:29.496Z,38.54
2023-06-19T13:17:00.102Z,38.31
2023-06-19T13:19:29.378Z,38.64
2023-06-19T13:21:58.267Z,38.92
2023-06-19T13:24:30.351Z,39.09
2023-06-19T13:26:59.327Z,39.35
2023-06-19T13:29:28.943Z,37.94
2023-06-19T13:31:57.755Z,37.14
2023-06-19T13:34:27.459Z,36.16
2023-06-19T13:36:56.249Z,36.63
2023-06-19T13:39:25.406Z,37.09
2023-06-19T13:41:54.203Z,37.23
2023-06-19T13:44:23.393Z,36.89
2023-06-19T13:46:52.297Z,37.24
2023-06-19T13:49:21.445Z,37.34
2023-06-19T13:51:50.325Z,37.71
2023-06-19T13:54:20.202Z,37.80
2023-06-19T13:56:49.544Z,37.57
2023-06-19T13:59:18.668Z,37.62
2023-06-19T14:01:47.613Z,37.76
2023-06-19T14:04:16.845Z,37.92
2023-06-19T14:06:45.624Z,37.67
2023-06-19T14:09:14.863Z,38.07
2023-06-19T14:11:45.418Z,37.68
2023-06-19T14:14:14.809Z,37.22
2023-06-19T14:16:43.644Z,37.59
2023-06-19T14:19:12.816Z,37.85
2023-06-19T14:21:41.637Z,37.59
2023-06-19T14:24:10.838Z,37.66
2023-06-19T14:26:39.703Z,37.50
2023-06-19T14:29:09.691Z,37.79
2023-06-19T14:31:38.504Z,37.87
2023-06-19T14:34:08.010Z,37.47
2023-06-19T14:36:38.621Z,38.16
2023-06-19T14:39:07.803Z,37.85
2023-06-19T14:41:36.883Z,37.99
2023-06-19T14:44:07.270Z,38.13
2023-06-19T14:46:40.929Z,38.24
2023-06-19T14:49:14.359Z,38.31
2023-06-19T14:51:46.011Z,37.99
2023-06-19T14:54:17.053Z,37.71
2023-06-19T14:56:49.492Z,37.59
2023-06-19T14:59:19.722Z,37.80
2023-06-19T15:01:48.583Z,37.88
2023-06-19T15:04:17.861Z,37.88
2023-06-19T15:06:47.311Z,38.16
2023-06-19T15:09:16.612Z,38.14
2023-06-19T15:11:45.461Z,38.02
2023-06-19T15:14:14.621Z,38.13
2023-06-19T15:16:43.441Z,38.29
2023-06-19T15:19:13.103Z,38.47
2023-06-19T15:21:43.489Z,38.05
2023-06-19T15:24:12.737Z,38.43
2023-06-19T15:26:41.572Z,38.45
2023-06-19T15:29:11.779Z,38.33
2023-06-19T15:31:40.674Z,38.23
2023-06-19T15:34:10.030Z,38.68
2023-06-19T15:36:38.813Z,38.73
2023-06-19T15:39:07.955Z,38.93
2023-06-19T15:41:36.862Z,38.41
2023-06-19T15:44:06.138Z,38.66
2023-06-19T15:46:35.066Z,38.68
2023-06-19T15:49:04.474Z,38.15
2023-06-19T15:51:33.403Z,38.20
2023-06-19T15:54:04.238Z,38.05
2023-06-19T15:56:33.653Z,37.90
2023-06-19T15:59:02.850Z,37.86
2023-06-19T16:01:31.597Z,37.58
2023-06-19T16:04:02.142Z,38.01
2023-06-19T16:06:31.190Z,37.84
2023-06-19T16:09:01.014Z,38.08
2023-06-19T16:11:31.371Z,37.71
2023-06-19T16:14:00.893Z,37.92
2023-06-19T16:16:29.752Z,37.97
2023-06-19T16:18:59.018Z,38.09
2023-06-19T16:21:29.285Z,38.18
2023-06-19T16:23:58.423Z,38.46
2023-06-19T16:26:27.350Z,37.91
2023-06-19T16:28:56.450Z,38.36
2023-06-19T16:31:25.379Z,38.42
2023-06-19T16:33:54.583Z,38.40
2023-06-19T16:36:23.926Z,38.28
2023-06-19T16:38:53.172Z,38.24
2023-06-19T16:41:21.936Z,38.24
2023-06-19T16:43:51.254Z,38.26
2023-06-19T16:46:20.105Z,38.35
2023-06-19T16:48:49.233Z,38.60
2023-06-19T16:51:18.033Z,38.62
2023-06-19T16:53:47.249Z,38.48
2023-06-19T16:56:16.382Z,38.12
2023-06-19T16:58:45.564Z,38.69
2023-06-19T17:01:14.334Z,38.54
2023-06-19T17:03:43.560Z,38.24
2023-06-19T17:06:12.481Z,38.30
2023-06-19T17:08:41.782Z,38.40
2023-06-19T17:11:10.639Z,38.69
2023-06-19T17:13:40.020Z,38.94
2023-06-19T17:16:08.950Z,38.82
2023-06-19T17:18:38.228Z,38.84
2023-06-19T17:21:07.080Z,38.84
2023-06-19T17:23:36.437Z,38.73
2023-06-19T17:26:05.327Z,38.75
2023-06-19T17:28:34.649Z,39.09
2023-06-19T17:31:03.738Z,38.86
2023-06-19T17:33:32.912Z,39.00
2023-06-19T17:36:02.626Z,38.94
2023-06-19T17:38:32.056Z,39.15
2023-06-19T17:41:01.781Z,39.08
2023-06-19T17:43:30.840Z,39.19
2023-06-19T17:45:59.716Z,39.36
2023-06-19T17:48:29.359Z,39.66
2023-06-19T17:50:58.282Z,39.43
2023-06-19T17:53:27.380Z,39.37
2023-06-19T17:55:56.363Z,39.54
2023-06-19T17:58:25.493Z,39.52
2023-06-19T18:00:54.642Z,39.65
2023-06-19T18:03:23.965Z,39.80
2023-06-19T18:05:52.751Z,39.79
2023-06-19T18:08:21.864Z,39.99
2023-06-19T18:10:50.806Z,40.14
2023-06-19T18:13:19.961Z,40.02
2023-06-19T18:15:58.850Z,40.24
2023-06-19T18:18:38.623Z,39.95
2023-06-19T18:21:07.404Z,40.21
2023-06-19T18:23:36.907Z,40.32
2023-06-19T18:26:05.672Z,40.66
2023-06-19T18:28:35.235Z,40.39
2023-06-19T18:31:04.090Z,40.47
2023-06-19T18:33:33.286Z,40.66
2023-06-19T18:36:02.279Z,40.59
2023-06-19T18:38:31.538Z,40.78
2023-06-19T18:41:00.354Z,40.55
2023-06-19T18:43:29.543Z,40.80
2023-06-19T18:45:58.354Z,40.67
2023-06-19T18:48:29.111Z,40.90
2023-06-19T18:50:58.108Z,40.98
2023-06-19T18:53:27.261Z,40.97
2023-06-19T18:55:56.850Z,41.01
2023-06-19T18:58:26.173Z,41.15
2023-06-19T19:00:55.032Z,41.11
2023-06-19T19:03:24.510Z,41.35
2023-06-19T19:05:53.486Z,41.39
2023-06-19T19:08:24.156Z,41.49
2023-06-19T19:10:53.005Z,41.45
2023-06-19T19:13:22.168Z,41.07
2023-06-19T19:15:51.088Z,41.38
2023-06-19T19:18:20.193Z,41.36
2023-06-19T19:20:49.153Z,41.44
2023-06-19T19:23:18.251Z,41.54
2023-06-19T19:25:47.020Z,41.55
2023-06-19T19:28:16.236Z,41.58
2023-06-19T19:30:46.405Z,41.22
2023-06-19T19:33:17.554Z,41.45
2023-06-19T19:35:46.482Z,41.42
2023-06-19T19:38:18.951Z,41.71
2023-06-19T19:40:48.390Z,41.69
2023-06-19T19:43:18.003Z,41.93
2023-06-19T19:45:46.859Z,41.83
2023-06-19T19:48:16.132Z,41.93
2023-06-19T19:50:45.028Z,42.30
2023-06-19T19:53:14.214Z,42.26
2023-06-19T19:55:43.497Z,42.50
2023-06-19T19:58:14.677Z,42.40
2023-06-19T20:00:48.701Z,42.63
2023-06-19T20:03:18.393Z,42.55
2023-06-19T20:05:47.384Z,42.75
2023-06-19T20:08:16.487Z,43.03
2023-06-19T20:10:46.799Z,42.99
2023-06-19T20:13:16.221Z,42.83
2023-06-19T20:15:48.043Z,42.95
2023-06-19T20:18:17.361Z,43.31
2023-06-19T20:20:46.409Z,43.31
2023-06-19T20:23:15.549Z,43.62
2023-06-19T20:25:46.128Z,43.69
2023-06-19T20:28:15.266Z,43.72
2023-06-19T20:30:44.191Z,43.96
2023-06-19T20:33:13.600Z,44.01
2023-06-19T20:35:42.517Z,44.17
2023-06-19T20:38:11.848Z,44.26
2023-06-19T20:40:40.775Z,44.13
2023-06-19T20:43:10.429Z,43.80
2023-06-19T20:45:42.052Z,43.79
2023-06-19T20:48:11.355Z,43.82
2023-06-19T20:50:40.159Z,43.99
2023-06-19T20:53:09.309Z,43.92
2023-06-19T20:55:38.226Z,44.32
2023-06-19T20:58:07.487Z,44.27
2023-06-19T21:00:36.367Z,44.26
2023-06-19T21:03:10.078Z,44.34
2023-06-19T21:05:40.920Z,44.66
2023-06-19T21:08:10.158Z,44.48
2023-06-19T21:10:41.462Z,44.45
2023-06-19T21:15:46.861Z,44.28
2023-06-19T21:18:16.703Z,43.88
2023-06-19T21:20:45.631Z,44.22
2023-06-19T21:23:15.059Z,44.13
2023-06-19T21:25:43.916Z,44.24
2023-06-19T21:28:13.151Z,44.10
2023-06-19T21:30:42.051Z,44.20
2023-06-19T21:33:11.490Z,44.29
2023-06-19T21:35:40.435Z,44.10
2023-06-19T21:38:09.584Z,44.39
2023-06-19T21:40:38.451Z,44.22
2023-06-19T21:43:08.217Z,44.33
2023-06-19T21:45:37.145Z,43.93
2023-06-19T21:48:06.553Z,44.39
2023-06-19T21:50:35.574Z,44.36
2023-06-19T21:53:04.739Z,44.35
2023-06-19T21:55:33.530Z,44.74
2023-06-19T21:58:02.847Z,44.87
2023-06-19T22:00:31.618Z,44.56
2023-06-19T22:03:00.917Z,45.06
2023-06-19T22:05:30.037Z,45.72
2023-06-19T22:07:59.268Z,46.40
2023-06-19T22:10:28.291Z,48.57
2023-06-19T22:12:57.908Z,47.87
2023-06-19T22:15:26.852Z,46.77
2023-06-19T22:17:55.951Z,48.19
2023-06-19T22:20:25.015Z,47.45
2023-06-19T22:22:54.321Z,46.95
2023-06-19T22:25:23.212Z,46.61
2023-06-19T22:27:55.809Z,46.12
2023-06-19T22:30:25.166Z,45.96
2023-06-19T22:32:55.097Z,45.48
2023-06-19T22:35:24.475Z,45.84
2023-06-19T22:37:54.454Z,46.04
2023-06-19T22:40:24.260Z,46.24
2023-06-19T22:42:54.017Z,46.56
2023-06-19T22:45:23.108Z,46.51
2023-06-19T22:47:52.740Z,46.44
2023-06-19T22:50:21.743Z,46.30
2023-06-19T22:52:50.918Z,46.52
2023-06-19T22:55:19.888Z,46.23
2023-06-19T22:57:49.660Z,46.58
2023-06-19T23:00:18.583Z,46.73
2023-06-19T23:02:47.780Z,46.73
2023-06-19T23:05:17.336Z,46.41
2023-06-19T23:07:46.460Z,46.83
2023-06-19T23:10:15.278Z,46.97
2023-06-19T23:12:44.697Z,47.46
2023-06-19T23:15:13.672Z,47.88
2023-06-19T23:17:42.849Z,47.77
2023-06-19T23:20:15.625Z,48.40
2023-06-19T23:22:44.777Z,48.74
2023-06-19T23:25:13.597Z,48.90
2023-06-19T23:27:42.636Z,48.95
2023-06-19T23:30:11.754Z,49.39
2023-06-19T23:32:41.036Z,49.72
2023-06-19T23:35:10.144Z,49.93
2023-06-19T23:37:39.611Z,49.90
2023-06-19T23:40:09.480Z,50.11
2023-06-19T23:42:38.962Z,50.34
2023-06-19T23:45:08.670Z,50.21
2023-06-19T23:47:37.889Z,50.53
2023-06-19T23:50:08.336Z,50.72
2023-06-19T23:52:43.447Z,50.34
2023-06-19T23:55:13.342Z,50.27
2023-06-19T23:57:42.429Z,50.44
